Oakwood, California
Current Conditions -  °F | °C
As of 12:47 AM on Monday 20 Oct 2014 (Local Time) from KCQT Reporting Station
Clear Clear  
Wind Chill: 66°   Ceiling: Unl
Heat Index: 66°   Visibility: 10mi
Dew Point: 61°   Wind: 0mph
Humidity: 84%   Direction: NA
Pressure: 29.88"   Gusts: NA
Location:  34.0763°N, 118.311°W
Report Text: KCQT 200747Z AUTO 00000KT 10SM CLR 19/16 A2988 RMK AO2 SLP117 T01890161 402500167
Loading
Personal Weather Stations






























Interactive Weather Map
Tropical Storm Tracking
New forecast layout! Learn more

10-Day Weather Forecast

Advertisements
Track Severe Weather on mobile